Time;durP1;ratioP1;P1;durP2;ratioP2;P2;SDS_P1;SDS_P2;PMS_P1;PMS_P2;Temp;Humidity;BMP_temperature;BMP_pressure;BME280_temperature;BME280_humidity;BME280_pressure;Samples;Min_cycle;Max_cycle;Signal;HPM_P1;HPM_P2
2021/01/20 00:01:27;;;;;;;1.65;1.08;;;8.70;70.20;;;;;;5048174;28;20105;-54
2021/01/20 00:03:52;;;;;;;1.42;1.10;;;8.70;70.60;;;;;;5032114;28;20079;-57
2021/01/20 00:06:18;;;;;;;3.10;1.30;;;8.70;71.10;;;;;;5033857;28;20052;-57
2021/01/20 00:08:43;;;;;;;1.70;1.05;;;8.70;72.10;;;;;;5048575;28;20114;-56
2021/01/20 00:11:09;;;;;;;2.67;1.20;;;8.60;72.80;;;;;;5034135;28;20069;-54
2021/01/20 00:13:35;;;;;;;1.98;1.20;;;8.60;72.60;;;;;;5035049;28;20033;-56
2021/01/20 00:16:00;;;;;;;2.05;1.10;;;8.70;72.30;;;;;;5032967;28;20029;-62
2021/01/20 00:18:26;;;;;;;3.65;1.00;;;8.70;72.50;;;;;;5032157;28;20033;-56
2021/01/20 00:20:52;;;;;;;2.05;1.25;;;8.70;72.90;;;;;;5033849;28;20032;-57
2021/01/20 00:23:36;;;;;;;1.92;1.20;;;8.70;73.50;;;;;;5033689;28;20056;-60
2021/01/20 00:26:02;;;;;;;1.77;1.20;;;8.60;73.70;;;;;;5047670;28;20116;-54
2021/01/20 00:28:27;;;;;;;1.90;1.38;;;8.60;74.40;;;;;;5032808;28;20117;-53
2021/01/20 00:30:56;;;;;;;2.00;1.20;;;8.60;74.70;;;;;;5033480;28;20057;-55
2021/01/20 00:33:22;;;;;;;2.97;1.42;;;8.50;75.20;;;;;;5028626;28;20021;-58
2021/01/20 00:35:48;;;;;;;2.13;1.45;;;8.50;76.10;;;;;;5031564;28;20112;-57
2021/01/20 00:38:14;;;;;;;2.97;1.20;;;8.50;75.70;;;;;;5034910;28;20112;-56
2021/01/20 00:40:39;;;;;;;1.83;1.00;;;8.60;75.90;;;;;;5033441;28;20029;-55
2021/01/20 00:43:05;;;;;;;1.98;1.35;;;8.60;76.20;;;;;;5032952;28;20549;-55
2021/01/20 00:45:31;;;;;;;1.65;1.10;;;8.60;76.00;;;;;;5032821;28;20028;-56
2021/01/20 00:47:56;;;;;;;3.30;1.20;;;8.60;75.60;;;;;;5033599;28;20108;-58
2021/01/20 00:50:22;;;;;;;1.83;1.00;;;8.70;75.20;;;;;;5032222;28;20494;-56
2021/01/20 00:52:48;;;;;;;2.03;1.10;;;8.70;75.20;;;;;;5032998;28;20112;-55
2021/01/20 00:55:15;;;;;;;2.00;1.10;;;8.70;75.40;;;;;;5029594;28;20025;-53
2021/01/20 00:57:41;;;;;;;1.60;0.85;;;8.80;75.00;;;;;;5029709;28;20022;-56
2021/01/20 01:00:07;;;;;;;3.70;0.88;;;8.80;73.80;;;;;;5031841;28;20377;-55
2021/01/20 01:02:35;;;;;;;1.08;0.80;;;8.80;73.90;;;;;;5032398;28;20037;-55
2021/01/20 01:05:02;;;;;;;0.90;0.70;;;8.80;73.60;;;;;;5030832;28;20042;-56
2021/01/20 01:07:27;;;;;;;1.77;0.93;;;8.80;73.00;;;;;;5033105;28;20029;-56
2021/01/20 01:09:53;;;;;;;1.55;0.95;;;8.90;72.50;;;;;;5032174;28;20375;-57
2021/01/20 01:12:19;;;;;;;1.58;0.80;;;8.90;72.40;;;;;;5033489;28;20032;-56
2021/01/20 01:14:44;;;;;;;2.15;0.90;;;8.90;72.20;;;;;;5037810;28;20046;-57
2021/01/20 01:17:10;;;;;;;3.33;0.80;;;8.90;71.70;;;;;;5032119;28;20021;-56
2021/01/20 01:19:36;;;;;;;1.13;0.70;;;8.90;71.40;;;;;;5032106;28;20052;-58
2021/01/20 01:22:20;;;;;;;1.08;0.70;;;9.00;71.50;;;;;;5033228;28;20041;-55
2021/01/20 01:24:46;;;;;;;1.00;0.60;;;9.00;71.60;;;;;;5032878;28;20030;-57
2021/01/20 01:27:11;;;;;;;1.00;0.70;;;9.00;71.70;;;;;;5032277;28;20026;-57
2021/01/20 01:29:37;;;;;;;1.35;0.73;;;9.00;71.80;;;;;;5032018;28;20478;-57
2021/01/20 01:32:02;;;;;;;1.77;0.90;;;9.00;72.10;;;;;;5031773;28;20108;-56
2021/01/20 01:34:28;;;;;;;1.17;0.77;;;9.00;72.50;;;;;;5031155;28;20025;-56
2021/01/20 01:36:54;;;;;;;1.67;0.70;;;9.00;73.00;;;;;;5048040;28;20026;-53
2021/01/20 01:39:20;;;;;;;1.33;0.70;;;8.90;74.00;;;;;;5032117;28;20060;-62
2021/01/20 01:41:45;;;;;;;1.05;0.70;;;9.00;74.30;;;;;;5031866;28;20033;-58
2021/01/20 01:44:11;;;;;;;1.25;0.68;;;8.90;74.80;;;;;;5033276;28;20067;-52
2021/01/20 01:46:37;;;;;;;1.08;0.70;;;8.90;75.80;;;;;;5031457;28;20430;-58
2021/01/20 01:49:02;;;;;;;0.68;0.55;;;8.90;76.00;;;;;;5034565;28;20042;-57
2021/01/20 01:51:28;;;;;;;0.85;0.60;;;8.80;76.30;;;;;;5047491;28;20022;-57
2021/01/20 01:53:54;;;;;;;1.80;0.80;;;8.90;77.50;;;;;;5033496;28;20079;-57
2021/01/20 01:56:23;;;;;;;0.70;0.63;;;8.90;77.70;;;;;;5033531;28;20033;-55
2021/01/20 01:58:52;;;;;;;1.63;0.70;;;8.90;78.60;;;;;;5030128;28;20036;-56
2021/01/20 02:01:19;;;;;;;1.38;0.82;;;8.80;79.50;;;;;;5032643;28;20540;-58
2021/01/20 02:03:48;;;;;;;2.15;0.70;;;8.80;79.70;;;;;;5032510;28;20074;-57
2021/01/20 02:06:13;;;;;;;1.00;0.80;;;8.80;79.70;;;;;;5032882;28;20033;-56
2021/01/20 02:08:39;;;;;;;0.88;0.73;;;8.80;79.10;;;;;;5032039;28;20486;-56
2021/01/20 02:11:25;;;;;;;1.50;0.90;;;8.80;79.10;;;;;;5032166;28;20029;-51
2021/01/20 02:14:18;;;;;;;2.80;0.85;;;8.90;79.10;;;;;;5021803;28;20057;-52
2021/01/20 02:16:53;;;;;;;4.00;0.85;;;8.90;79.50;;;;;;5031870;28;20243;-50
2021/01/20 02:19:29;;;;;;;1.63;0.68;;;8.90;78.90;;;;;;5031080;28;20029;-52
2021/01/20 02:22:11;;;;;;;1.67;0.52;;;9.00;78.40;;;;;;5033577;28;20071;-56
2021/01/20 02:25:10;;;;;;;2.50;0.75;;;9.00;77.80;;;;;;5030670;28;20029;-56
2021/01/20 02:27:57;;;;;;;1.95;0.90;;;9.10;78.00;;;;;;5002699;28;20525;-51
2021/01/20 02:30:24;;;;;;;2.05;1.00;;;9.10;77.80;;;;;;5031984;28;20113;-62
2021/01/20 02:32:53;;;;;;;2.40;1.10;;;9.20;77.60;;;;;;5032374;28;20030;-57
2021/01/20 02:35:22;;;;;;;2.83;1.02;;;9.20;77.40;;;;;;5033021;28;20033;-55
2021/01/20 02:37:49;;;;;;;2.90;0.75;;;9.20;76.80;;;;;;5030181;28;20037;-55
2021/01/20 02:40:16;;;;;;;2.55;1.10;;;9.20;76.50;;;;;;5032280;28;20029;-56
2021/01/20 02:42:44;;;;;;;3.85;1.00;;;9.30;76.30;;;;;;5031476;28;20478;-56
2021/01/20 02:45:10;;;;;;;2.35;0.93;;;9.30;76.00;;;;;;5032164;28;20026;-54
2021/01/20 02:47:37;;;;;;;0.70;0.50;;;9.40;75.60;;;;;;5030933;28;20474;-56
2021/01/20 02:50:05;;;;;;;1.35;0.60;;;9.40;75.20;;;;;;5031862;28;20490;-57
2021/01/20 02:52:49;;;;;;;1.20;0.50;;;9.40;75.20;;;;;;5029869;28;20047;-54
2021/01/20 02:55:19;;;;;;;1.27;0.70;;;9.50;74.90;;;;;;5033496;28;20056;-57
2021/01/20 02:57:49;;;;;;;1.58;0.60;;;9.50;74.60;;;;;;5030887;28;20041;-55
2021/01/20 03:00:17;;;;;;;1.23;0.50;;;9.50;74.30;;;;;;5032174;28;20041;-56
2021/01/20 03:02:48;;;;;;;0.70;0.60;;;9.50;74.20;;;;;;5029473;28;20147;-54
2021/01/20 03:05:17;;;;;;;0.85;0.65;;;9.60;73.90;;;;;;5032197;28;20045;-57
2021/01/20 03:07:43;;;;;;;1.90;0.80;;;9.60;73.30;;;;;;5022873;28;20033;-57
2021/01/20 03:10:11;;;;;;;1.95;0.77;;;9.70;73.00;;;;;;5032063;28;20033;-56
2021/01/20 03:12:37;;;;;;;1.77;0.70;;;9.70;72.90;;;;;;5030566;28;20462;-53
2021/01/20 03:15:09;;;;;;;2.17;0.60;;;9.80;72.50;;;;;;5031719;28;20044;-53
2021/01/20 03:17:54;;;;;;;0.82;0.65;;;9.70;72.50;;;;;;5030039;28;20051;-56
2021/01/20 03:20:20;;;;;;;1.05;0.68;;;9.70;72.60;;;;;;5031828;28;20049;-52
2021/01/20 03:22:46;;;;;;;1.08;0.80;;;9.70;72.60;;;;;;5031704;28;20437;-51
2021/01/20 03:25:12;;;;;;;1.13;0.70;;;9.80;72.20;;;;;;5032152;28;20029;-53
2021/01/20 03:27:37;;;;;;;1.70;0.80;;;9.70;72.20;;;;;;5030995;28;20040;-53
2021/01/20 03:30:07;;;;;;;2.83;0.80;;;9.70;72.30;;;;;;5032751;28;20037;-49
2021/01/20 03:32:33;;;;;;;1.50;0.65;;;9.70;72.00;;;;;;5033523;28;20052;-52
2021/01/20 03:34:59;;;;;;;0.52;0.52;;;9.70;72.00;;;;;;5031526;28;20021;-49
2021/01/20 03:37:25;;;;;;;1.63;0.88;;;9.70;72.00;;;;;;5031393;28;20029;-51
2021/01/20 03:39:51;;;;;;;1.00;0.70;;;9.60;71.80;;;;;;5046501;28;20036;-52
2021/01/20 03:42:16;;;;;;;0.80;0.50;;;9.60;71.90;;;;;;5031920;28;20025;-52
2021/01/20 03:44:42;;;;;;;3.00;0.65;;;9.60;71.90;;;;;;5031041;28;20055;-52
2021/01/20 03:47:08;;;;;;;2.63;0.65;;;9.60;71.70;;;;;;5047307;28;20084;-51
2021/01/20 03:49:33;;;;;;;1.30;0.75;;;9.70;71.50;;;;;;5031109;28;20033;-56
2021/01/20 03:51:59;;;;;;;2.17;0.80;;;9.70;71.50;;;;;;5031755;28;20079;-56
2021/01/20 03:54:24;;;;;;;0.95;0.60;;;9.60;71.50;;;;;;5031770;28;20390;-56
2021/01/20 03:56:50;;;;;;;1.73;0.75;;;9.60;71.80;;;;;;5031024;28;20057;-51
2021/01/20 03:59:16;;;;;;;1.73;0.90;;;9.50;72.00;;;;;;5031800;28;20044;-54
2021/01/20 04:01:41;;;;;;;1.20;0.90;;;9.40;72.30;;;;;;5031571;28;20033;-56
2021/01/20 04:04:07;;;;;;;1.45;0.70;;;9.40;72.30;;;;;;5030574;28;20053;-55
2021/01/20 04:06:33;;;;;;;2.08;0.90;;;9.50;72.00;;;;;;5018152;28;20041;-51
2021/01/20 04:08:58;;;;;;;2.35;0.82;;;9.50;71.90;;;;;;5032934;28;20026;-52
2021/01/20 04:11:24;;;;;;;1.42;0.73;;;9.40;71.90;;;;;;5035306;28;20029;-53
2021/01/20 04:13:51;;;;;;;2.25;0.80;;;9.40;72.00;;;;;;5033592;28;20040;-50
2021/01/20 04:16:16;;;;;;;1.67;1.10;;;9.30;72.40;;;;;;5035202;28;20087;-52
2021/01/20 04:18:42;;;;;;;0.80;0.50;;;9.30;72.60;;;;;;5034132;28;20026;-54
2021/01/20 04:21:08;;;;;;;1.73;0.82;;;9.20;72.80;;;;;;5034875;28;20100;-58
2021/01/20 04:23:36;;;;;;;1.98;0.80;;;9.20;72.70;;;;;;5034543;28;20112;-55
2021/01/20 04:26:04;;;;;;;2.38;1.00;;;9.30;72.30;;;;;;5035319;28;20344;-54
2021/01/20 04:28:31;;;;;;;1.48;1.00;;;9.30;72.40;;;;;;5050015;28;20052;-63
2021/01/20 04:30:57;;;;;;;2.55;1.15;;;9.30;72.40;;;;;;5035271;28;20060;-56
2021/01/20 04:33:23;;;;;;;2.38;0.80;;;9.30;72.40;;;;;;5037153;28;20429;-57
2021/01/20 04:35:49;;;;;;;1.45;0.90;;;9.20;72.40;;;;;;5049430;28;20040;-54
2021/01/20 04:38:14;;;;;;;1.40;0.75;;;9.20;72.50;;;;;;5034695;28;20029;-54
2021/01/20 04:40:40;;;;;;;1.55;0.70;;;9.20;72.30;;;;;;5034166;28;20056;-53
2021/01/20 04:43:05;;;;;;;1.50;0.90;;;9.20;72.20;;;;;;5050440;28;20022;-57
2021/01/20 04:45:31;;;;;;;2.08;1.23;;;9.20;72.20;;;;;;5034389;28;20528;-62
2021/01/20 04:48:00;;;;;;;1.75;1.10;;;9.20;73.10;;;;;;5034429;28;20034;-55
2021/01/20 04:50:29;;;;;;;2.15;1.20;;;9.10;72.80;;;;;;5032840;28;20044;-52
2021/01/20 04:52:59;;;;;;;2.15;1.40;;;9.10;73.40;;;;;;5033790;28;20534;-55
2021/01/20 04:55:25;;;;;;;2.50;1.52;;;9.10;73.60;;;;;;5033864;28;20422;-55
2021/01/20 04:57:50;;;;;;;2.67;1.50;;;8.90;74.10;;;;;;5033565;28;20034;-54
2021/01/20 05:00:17;;;;;;;4.28;1.73;;;8.90;74.50;;;;;;5034450;28;20067;-52
2021/01/20 05:02:43;;;;;;;2.53;1.70;;;8.80;74.90;;;;;;5032799;28;20033;-55
2021/01/20 05:05:10;;;;;;;4.53;1.65;;;8.70;75.20;;;;;;5032723;28;20068;-52
2021/01/20 05:07:36;;;;;;;2.55;1.40;;;8.70;75.50;;;;;;5034068;28;20476;-54
2021/01/20 05:10:01;;;;;;;3.20;1.40;;;8.70;75.80;;;;;;5033638;28;20044;-54
2021/01/20 05:12:38;;;;;;;2.60;1.27;;;8.60;75.80;;;;;;5034080;28;20034;-50
2021/01/20 05:15:06;;;;;;;2.58;1.52;;;8.50;76.00;;;;;;5033876;28;20112;-57
2021/01/20 05:17:33;;;;;;;3.53;1.58;;;8.50;76.60;;;;;;5032426;28;20091;-53
2021/01/20 05:19:59;;;;;;;2.92;1.70;;;8.50;76.60;;;;;;5033641;28;20057;-57
2021/01/20 05:22:24;;;;;;;2.85;1.40;;;8.50;75.90;;;;;;5032944;28;20064;-61
2021/01/20 05:25:02;;;;;;;3.00;1.30;;;8.50;76.60;;;;;;5047763;28;20132;-56
2021/01/20 05:27:31;;;;;;;3.20;1.45;;;8.40;76.90;;;;;;5033847;28;20025;-56
2021/01/20 05:30:05;;;;;;;3.00;1.65;;;8.40;76.50;;;;;;5032719;28;20041;-55
2021/01/20 05:32:32;;;;;;;2.72;1.20;;;8.40;76.50;;;;;;5034129;28;20113;-57
2021/01/20 05:35:05;;;;;;;2.67;1.55;;;8.40;76.90;;;;;;5033392;28;20091;-54
2021/01/20 05:37:31;;;;;;;;;;;8.40;76.70;;;;;;5033976;28;20061;-54
2021/01/20 05:40:08;;;;;;;3.75;1.77;;;8.50;76.40;;;;;;5032784;28;19957;-53
2021/01/20 05:42:52;;;;;;;4.55;2.20;;;8.50;75.90;;;;;;5033123;28;20037;-58
2021/01/20 05:45:22;;;;;;;6.60;2.20;;;8.50;76.50;;;;;;5037961;28;20474;-58
2021/01/20 05:48:08;;;;;;;5.53;2.08;;;8.50;76.20;;;;;;5032275;28;20453;-56
2021/01/20 05:50:55;;;;;;;5.88;1.83;;;8.40;77.00;;;;;;5032080;28;20060;-56
2021/01/20 05:53:21;;;;;;;5.97;2.38;;;8.30;77.30;;;;;;5032057;28;20033;-56
2021/01/20 05:56:01;;;;;;;4.85;1.83;;;8.20;77.40;;;;;;5025054;28;20025;-56
2021/01/20 05:58:39;;;;;;;6.05;3.22;;;8.20;77.50;;;;;;5032453;28;20474;-56
2021/01/20 06:01:11;;;;;;;5.38;2.53;;;8.10;77.60;;;;;;5031413;28;20079;-56
2021/01/20 06:03:38;;;;;;;6.25;2.58;;;8.10;77.50;;;;;;5032704;28;20041;-57
2021/01/20 06:06:07;;;;;;;3.95;2.30;;;8.10;77.50;;;;;;5030633;28;20172;-56
2021/01/20 06:08:34;;;;;;;4.18;2.20;;;8.10;77.00;;;;;;5032516;28;20100;-52
2021/01/20 06:11:02;;;;;;;5.68;2.10;;;8.20;76.90;;;;;;5047330;28;20371;-54
2021/01/20 06:13:28;;;;;;;3.78;1.98;;;8.10;76.80;;;;;;5048786;28;20128;-53
2021/01/20 06:16:00;;;;;;;7.93;2.45;;;8.10;77.00;;;;;;5032341;28;20049;-57
2021/01/20 06:18:35;;;;;;;4.38;2.25;;;8.00;77.20;;;;;;5032925;28;20060;-55
2021/01/20 06:21:01;;;;;;;5.88;2.58;;;8.00;77.40;;;;;;5031721;28;20044;-58
2021/01/20 06:23:30;;;;;;;6.55;2.50;;;8.00;77.50;;;;;;5049058;28;20062;-57
2021/01/20 06:26:05;;;;;;;8.70;3.90;;;8.10;77.20;;;;;;5034350;28;20026;-58
2021/01/20 06:28:32;;;;;;;7.47;4.35;;;8.10;77.00;;;;;;5031037;28;20056;-56
2021/01/20 06:31:04;;;;;;;8.43;4.63;;;8.20;76.40;;;;;;5030529;28;20026;-57
2021/01/20 06:33:31;;;;;;;7.28;3.08;;;8.20;76.20;;;;;;5023693;28;20482;-58
2021/01/20 06:35:57;;;;;;;9.70;3.42;;;8.20;76.40;;;;;;5031213;28;20037;-59
2021/01/20 06:38:29;;;;;;;7.20;3.10;;;8.10;76.70;;;;;;5032856;28;20424;-58
2021/01/20 06:40:59;;;;;;;8.65;4.70;;;8.10;76.80;;;;;;5030435;28;20033;-60
2021/01/20 06:43:47;;;;;;;6.90;3.53;;;8.00;77.00;;;;;;5031857;28;20108;-56
2021/01/20 06:46:20;;;;;;;9.05;4.70;;;8.10;76.80;;;;;;5032010;28;20132;-58
2021/01/20 06:48:54;;;;;;;7.82;3.90;;;8.10;76.30;;;;;;5030818;28;20108;-55
2021/01/20 06:51:21;;;;;;;6.55;3.00;;;8.10;76.40;;;;;;5031928;28;20033;-55
2021/01/20 06:54:02;;;;;;;6.78;3.80;;;8.10;76.40;;;;;;5046616;28;20470;-59
2021/01/20 06:56:44;;;;;;;10.25;4.43;;;8.10;76.20;;;;;;5031813;28;20029;-56
2021/01/20 06:59:20;;;;;;;7.25;3.88;;;8.10;76.40;;;;;;5032222;28;20083;-58
2021/01/20 07:02:04;;;;;;;7.57;4.25;;;8.00;76.60;;;;;;5030683;28;20068;-56
2021/01/20 07:04:38;;;;;;;8.30;4.07;;;8.10;76.40;;;;;;5035112;28;20103;-57
2021/01/20 07:07:05;;;;;;;6.63;3.75;;;8.10;76.20;;;;;;5060542;22;20257;-68
2021/01/20 07:09:49;;;;;;;14.75;8.38;;;8.10;75.80;;;;;;5039725;28;20095;-67
2021/01/20 07:12:16;;;;;;;12.05;5.60;;;8.10;75.50;;;;;;5046214;28;20122;-70
2021/01/20 07:14:43;;;;;;;7.75;4.10;;;8.00;76.50;;;;;;5035546;28;20025;-68
2021/01/20 07:17:10;;;;;;;8.38;4.07;;;8.10;75.70;;;;;;5051545;28;20044;-69
2021/01/20 07:19:38;;;;;;;9.23;4.60;;;8.30;75.20;;;;;;5032165;28;20530;-66
2021/01/20 07:22:04;;;;;;;12.05;4.88;;;8.40;74.50;;;;;;5036814;28;20017;-68
2021/01/20 07:24:31;;;;;;;9.73;4.20;;;8.60;74.10;;;;;;5051591;28;20025;-67
2021/01/20 07:27:12;;;;;;;10.70;4.22;;;8.70;73.60;;;;;;5051263;28;20065;-68
2021/01/20 07:29:39;;;;;;;10.00;4.00;;;8.70;72.90;;;;;;5043927;28;20116;-68
2021/01/20 07:32:06;;;;;;;10.25;4.68;;;8.90;72.80;;;;;;5049141;28;20033;-69
2021/01/20 07:34:36;;;;;;;9.65;4.53;;;9.00;72.40;;;;;;5045348;28;20030;-69
2021/01/20 07:37:13;;;;;;;10.45;4.90;;;9.00;71.90;;;;;;5043755;28;20033;-68
2021/01/20 07:39:39;;;;;;;17.48;5.32;;;9.10;71.70;;;;;;5040100;28;20112;-68
2021/01/20 07:42:05;;;;;;;8.43;4.63;;;9.10;71.70;;;;;;5030116;28;20382;-67
2021/01/20 07:44:32;;;;;;;12.75;5.22;;;9.20;71.60;;;;;;5032721;28;20022;-68
2021/01/20 07:47:03;;;;;;;9.15;5.05;;;9.50;71.40;;;;;;5030201;28;20510;-69
2021/01/20 07:49:30;;;;;;;10.27;6.45;;;10.40;69.30;;;;;;5050473;28;20044;-70
2021/01/20 07:51:59;;;;;;;16.25;7.60;;;11.60;65.80;;;;;;5049474;28;20033;-67
2021/01/20 07:54:25;;;;;;;13.80;7.50;;;12.90;59.70;;;;;;5074352;28;20028;-68
2021/01/20 07:56:51;;;;;;;12.40;8.40;;;13.80;58.40;;;;;;5050970;28;20454;-68
2021/01/20 07:59:18;;;;;;;13.70;7.97;;;14.60;54.80;;;;;;5048352;28;20033;-70
2021/01/20 08:01:44;;;;;;;19.35;8.00;;;15.20;53.90;;;;;;5047585;28;20029;-68
2021/01/20 08:04:23;;;;;;;18.05;9.13;;;15.80;52.20;;;;;;5055529;28;20028;-68
2021/01/20 08:06:49;;;;;;;17.35;10.98;;;16.20;48.60;;;;;;5038923;28;20057;-71
2021/01/20 08:09:15;;;;;;;14.45;7.53;;;15.90;49.90;;;;;;5049367;28;20071;-68
2021/01/20 08:11:45;;;;;;;12.48;7.93;;;15.30;50.30;;;;;;5043923;28;20033;-68
2021/01/20 08:14:12;;;;;;;13.70;8.43;;;14.30;52.00;;;;;;5052193;28;20365;-67
2021/01/20 08:16:38;;;;;;;19.02;8.38;;;13.50;54.00;;;;;;5053948;28;20021;-67
2021/01/20 08:19:05;;;;;;;14.35;8.05;;;13.00;56.30;;;;;;5054269;28;20043;-68
2021/01/20 08:21:32;;;;;;;16.10;7.38;;;12.60;57.20;;;;;;5054718;28;20025;-70
2021/01/20 08:24:00;;;;;;;13.55;8.02;;;12.30;58.60;;;;;;5054580;28;20025;-73
2021/01/20 08:26:31;;;;;;;13.70;8.13;;;12.20;59.30;;;;;;5054459;28;20032;-68
2021/01/20 08:29:12;;;;;;;15.32;7.38;;;12.00;60.00;;;;;;5050708;28;20064;-68
2021/01/20 08:31:42;;;;;;;12.02;7.40;;;11.70;60.70;;;;;;5054674;28;20029;-67
2021/01/20 08:34:13;;;;;;;12.35;6.65;;;11.50;61.60;;;;;;5054506;28;20025;-67
2021/01/20 08:36:49;;;;;;;11.57;6.75;;;11.30;61.70;;;;;;5053506;28;20469;-68
2021/01/20 08:39:15;;;;;;;9.77;6.20;;;11.20;62.60;;;;;;5054679;28;20027;-69
2021/01/20 08:41:41;;;;;;;14.93;6.10;;;11.10;63.00;;;;;;5047767;28;20128;-67
2021/01/20 08:44:15;;;;;;;9.32;5.40;;;11.00;63.50;;;;;;5033464;28;20045;-67
2021/01/20 08:46:41;;;;;;;11.93;5.18;;;10.90;63.70;;;;;;5033803;28;20029;-68
2021/01/20 08:49:07;;;;;;;11.57;5.10;;;10.70;64.30;;;;;;5033864;28;20079;-71
2021/01/20 08:51:33;;;;;;;10.30;5.80;;;10.70;64.80;;;;;;5048793;28;20037;-67
2021/01/20 08:54:11;;;;;;;13.32;5.75;;;10.60;65.20;;;;;;5052514;28;20032;-69
2021/01/20 08:56:37;;;;;;;9.98;5.30;;;10.60;65.10;;;;;;5054968;28;20025;-69
2021/01/20 08:59:03;;;;;;;16.55;7.30;;;10.70;65.20;;;;;;5052417;28;20028;-66
2021/01/20 09:01:29;;;;;;;10.50;5.90;;;10.70;64.80;;;;;;5052048;28;20454;-68
2021/01/20 09:03:59;;;;;;;13.45;5.03;;;10.80;64.40;;;;;;5050303;28;20037;-68
2021/01/20 09:06:26;;;;;;;8.48;4.95;;;10.90;64.10;;;;;;5048708;28;20060;-67
2021/01/20 09:08:53;;;;;;;11.73;4.85;;;11.00;63.50;;;;;;5046935;28;20037;-68
2021/01/20 09:11:20;;;;;;;8.57;4.63;;;11.10;63.10;;;;;;5032495;28;20051;-66
2021/01/20 09:13:46;;;;;;;10.07;5.40;;;11.20;63.10;;;;;;5052187;28;20215;-69
2021/01/20 09:16:12;;;;;;;14.68;5.00;;;11.30;62.60;;;;;;5049117;28;20112;-69
2021/01/20 09:18:39;;;;;;;10.65;4.93;;;11.40;62.10;;;;;;5045592;28;20028;-71
2021/01/20 09:21:05;;;;;;;10.93;5.32;;;11.50;62.00;;;;;;5051343;28;20029;-69
2021/01/20 09:23:31;;;;;;;13.23;5.30;;;11.60;61.60;;;;;;5052469;28;20056;-70
2021/01/20 09:25:57;;;;;;;13.07;6.07;;;11.70;61.50;;;;;;5052043;28;20061;-69
2021/01/20 09:28:22;;;;;;;12.13;6.18;;;11.70;61.10;;;;;;5050394;28;20025;-69
2021/01/20 09:30:48;;;;;;;15.23;6.45;;;11.80;61.00;;;;;;5048926;28;20033;-69
2021/01/20 09:33:14;;;;;;;11.13;6.47;;;11.90;60.90;;;;;;5024670;28;20025;-68
2021/01/20 09:35:40;;;;;;;8.90;4.63;;;12.00;60.30;;;;;;5051284;28;20378;-70
2021/01/20 09:38:07;;;;;;;8.02;4.05;;;12.20;59.60;;;;;;5051299;28;20115;-70
2021/01/20 09:40:34;;;;;;;22.08;5.90;;;12.40;59.00;;;;;;5044340;28;20079;-69
2021/01/20 09:43:00;;;;;;;15.65;5.78;;;12.50;58.90;;;;;;5050426;28;20031;-69
2021/01/20 09:45:28;;;;;;;21.48;6.00;;;12.70;58.50;;;;;;5048286;28;20055;-69
2021/01/20 09:47:55;;;;;;;30.98;6.50;;;12.70;58.30;;;;;;5049738;28;20037;-72
2021/01/20 09:50:22;;;;;;;17.42;4.50;;;12.70;58.40;;;;;;5051401;28;20056;-70
2021/01/20 09:52:47;;;;;;;11.57;4.53;;;12.80;58.50;;;;;;5051586;28;20091;-70
2021/01/20 09:55:15;;;;;;;8.05;4.32;;;12.70;58.10;;;;;;5044252;28;20025;-71
2021/01/20 09:57:41;;;;;;;18.25;5.00;;;12.70;58.70;;;;;;5051795;28;20037;-69
2021/01/20 10:00:08;;;;;;;15.20;4.93;;;12.70;58.60;;;;;;5039275;28;20032;-75
2021/01/20 10:02:34;;;;;;;15.50;5.50;;;12.80;58.00;;;;;;5041474;28;20033;-71
2021/01/20 10:05:00;;;;;;;14.68;4.95;;;12.80;57.90;;;;;;5046308;28;20041;-64
2021/01/20 10:07:27;;;;;;;12.95;4.55;;;12.80;57.90;;;;;;5050922;28;20432;-71
2021/01/20 10:09:53;;;;;;;15.00;5.35;;;12.90;57.10;;;;;;5050633;28;20033;-76
2021/01/20 10:12:18;;;;;;;7.97;4.47;;;12.90;57.20;;;;;;5050922;28;20511;-71
2021/01/20 10:14:46;;;;;;;13.38;4.60;;;12.80;56.40;;;;;;5048643;28;20037;-71
2021/01/20 10:17:12;;;;;;;15.88;6.30;;;12.80;56.90;;;;;;5032560;28;20033;-73
2021/01/20 10:19:37;;;;;;;13.73;5.20;;;12.90;56.90;;;;;;5042814;28;20068;-71
2021/01/20 10:22:03;;;;;;;10.05;5.47;;;12.90;56.30;;;;;;5037359;28;20052;-70
2021/01/20 10:24:29;;;;;;;14.90;4.70;;;13.00;56.00;;;;;;5040594;28;20126;-71
2021/01/20 10:26:56;;;;;;;24.60;6.05;;;12.90;56.00;;;;;;5048936;28;20446;-71
2021/01/20 10:29:22;;;;;;;9.48;4.70;;;13.00;56.00;;;;;;5036571;28;20037;-62
2021/01/20 10:31:48;;;;;;;9.25;4.88;;;13.10;55.90;;;;;;5047073;28;20487;-62
2021/01/20 10:34:13;;;;;;;16.60;5.00;;;13.20;55.70;;;;;;5038874;28;20177;-71
2021/01/20 10:36:40;;;;;;;23.15;6.18;;;13.10;55.20;;;;;;5040009;28;20064;-70
2021/01/20 10:39:09;;;;;;;20.10;5.43;;;13.20;55.60;;;;;;5037342;28;20060;-65
2021/01/20 10:41:36;;;;;;;15.73;5.65;;;13.30;55.40;;;;;;5045457;28;20064;-71
2021/01/20 10:44:03;;;;;;;9.43;4.57;;;13.30;55.10;;;;;;5044305;28;20158;-62
2021/01/20 10:46:29;;;;;;;12.95;5.55;;;13.40;55.00;;;;;;5045695;28;20033;-67
2021/01/20 10:48:59;;;;;;;8.52;4.72;;;13.50;54.30;;;;;;5049174;28;20033;-64
2021/01/20 10:51:28;;;;;;;12.10;5.43;;;13.80;54.00;;;;;;5043302;28;20433;-65
2021/01/20 10:53:54;;;;;;;11.95;5.28;;;14.70;53.60;;;;;;5045420;28;20090;-63
2021/01/20 10:56:19;;;;;;;9.93;4.30;;;15.80;50.20;;;;;;5025125;28;20030;-69
2021/01/20 10:58:45;;;;;;;13.98;4.95;;;16.20;48.20;;;;;;5034443;28;20030;-72
2021/01/20 11:01:10;;;;;;;8.75;4.82;;;16.40;47.40;;;;;;5031843;28;20102;-73
2021/01/20 11:03:39;;;;;;;11.20;4.95;;;16.00;46.60;;;;;;5036458;28;20036;-74
2021/01/20 11:06:08;;;;;;;10.95;4.60;;;15.80;47.30;;;;;;5048669;28;20033;-73
2021/01/20 11:08:34;;;;;;;12.27;4.95;;;15.40;48.20;;;;;;5051296;28;20029;-73
2021/01/20 11:11:00;;;;;;;12.43;5.30;;;15.20;49.20;;;;;;5049649;28;20127;-74
2021/01/20 11:13:26;;;;;;;9.25;5.20;;;15.50;49.60;;;;;;5042411;28;20037;-73
2021/01/20 11:15:52;;;;;;;15.15;5.68;;;15.80;48.50;;;;;;5044639;28;20021;-70
2021/01/20 11:18:19;;;;;;;13.98;4.90;;;15.70;48.80;;;;;;5049732;28;20174;-68
2021/01/20 11:20:46;;;;;;;8.00;4.53;;;15.40;48.00;;;;;;5048628;28;20033;-68
2021/01/20 11:23:12;;;;;;;9.18;4.95;;;15.10;48.40;;;;;;5036580;28;20065;-69
2021/01/20 11:25:44;;;;;;;9.68;4.95;;;14.90;48.90;;;;;;5032292;28;20387;-70
2021/01/20 11:28:10;;;;;;;11.88;5.82;;;14.60;49.70;;;;;;5048347;28;20471;-67
2021/01/20 11:30:36;;;;;;;11.60;6.05;;;14.60;50.00;;;;;;5047887;28;20062;-68
2021/01/20 11:33:02;;;;;;;9.07;5.32;;;14.60;49.70;;;;;;5049602;28;20390;-70
2021/01/20 11:35:27;;;;;;;10.32;5.82;;;14.40;48.80;;;;;;5051438;28;20029;-68
2021/01/20 11:37:56;;;;;;;9.65;5.70;;;14.40;49.60;;;;;;5050907;28;20051;-68
2021/01/20 11:40:23;;;;;;;12.20;5.38;;;14.40;49.70;;;;;;5048304;28;20175;-68
2021/01/20 11:42:48;;;;;;;11.75;5.60;;;14.30;50.00;;;;;;5050906;28;20079;-69
2021/01/20 11:45:14;;;;;;;9.63;6.50;;;14.30;50.50;;;;;;5049424;28;20603;-67
2021/01/20 11:47:40;;;;;;;10.10;5.97;;;14.40;50.70;;;;;;5040741;28;20092;-68
2021/01/20 11:50:06;;;;;;;13.13;6.00;;;14.40;50.60;;;;;;5047790;28;20045;-68
2021/01/20 11:52:32;;;;;;;10.85;6.20;;;14.50;50.60;;;;;;5045788;28;20064;-68
2021/01/20 11:54:58;;;;;;;12.77;6.82;;;14.60;50.50;;;;;;5050438;28;20487;-68
2021/01/20 11:57:24;;;;;;;13.30;7.53;;;14.60;50.60;;;;;;5044941;28;20021;-67
2021/01/20 11:59:49;;;;;;;15.57;8.27;;;14.60;51.40;;;;;;5050367;28;20051;-68
2021/01/20 12:02:15;;;;;;;15.38;7.90;;;14.90;51.60;;;;;;5044555;28;20465;-69
2021/01/20 12:04:42;;;;;;;12.48;8.23;;;15.80;50.10;;;;;;5050690;28;20033;-70
2021/01/20 12:07:07;;;;;;;15.10;7.38;;;15.70;48.60;;;;;;5046860;28;20053;-69
2021/01/20 12:09:33;;;;;;;12.50;8.18;;;15.00;49.90;;;;;;5051193;28;20079;-68
2021/01/20 12:11:59;;;;;;;14.73;7.50;;;14.60;50.80;;;;;;5050940;28;20039;-69
2021/01/20 12:14:24;;;;;;;13.65;9.18;;;14.50;50.90;;;;;;5050677;28;20060;-69
2021/01/20 12:16:50;;;;;;;11.05;7.60;;;14.80;50.30;;;;;;5049834;28;20020;-68
2021/01/20 12:19:16;;;;;;;14.63;8.18;;;14.50;49.30;;;;;;5048578;28;20033;-68
2021/01/20 12:21:41;;;;;;;15.43;8.57;;;14.20;50.40;;;;;;5045376;28;20022;-70
2021/01/20 12:24:08;;;;;;;13.20;7.90;;;13.90;50.60;;;;;;5049687;28;20036;-68
2021/01/20 12:26:33;;;;;;;12.27;8.15;;;13.70;50.90;;;;;;5050899;28;20021;-69
2021/01/20 12:28:59;;;;;;;17.23;7.82;;;13.60;51.10;;;;;;5045821;28;20160;-70
2021/01/20 12:31:25;;;;;;;17.33;8.23;;;13.50;51.00;;;;;;5043494;28;20033;-69
2021/01/20 12:33:50;;;;;;;11.85;8.85;;;13.60;50.80;;;;;;5050674;28;20029;-69
2021/01/20 12:36:17;;;;;;;11.95;8.30;;;13.50;50.90;;;;;;5054212;28;20025;-69
2021/01/20 12:38:43;;;;;;;13.38;6.80;;;13.40;50.70;;;;;;5054459;28;20408;-68
2021/01/20 12:41:08;;;;;;;11.38;7.75;;;13.20;50.60;;;;;;5053639;28;20025;-69
2021/01/20 12:43:34;;;;;;;11.27;7.72;;;13.10;50.40;;;;;;5054295;28;20434;-68
2021/01/20 12:46:00;;;;;;;15.30;8.27;;;12.90;50.90;;;;;;5050872;28;20044;-68
2021/01/20 12:48:25;;;;;;;15.27;7.78;;;12.80;50.80;;;;;;5045356;28;20025;-68
2021/01/20 12:50:51;;;;;;;12.15;7.47;;;12.70;50.50;;;;;;5050918;28;20029;-69
2021/01/20 12:53:17;;;;;;;12.70;8.52;;;12.60;50.50;;;;;;5051658;28;20029;-68
2021/01/20 12:55:42;;;;;;;17.33;8.48;;;12.50;51.60;;;;;;5048226;28;20460;-70